sensor_id;sensor_type;location;lat;lon;timestamp;pressure;altitude;pressure_sealevel;temperature;humidity
48530;BME280;34927;37.302;-121.982;2022-12-13T00:00:21;100758.0;;;21.98;35.34
48530;BME280;34927;37.302;-121.982;2022-12-13T00:01:28;100758.0;;;21.99;35.31
48530;BME280;34927;37.302;-121.982;2022-12-13T00:02:31;100760.0;;;21.83;35.74
48530;BME280;34927;37.302;-121.982;2022-12-13T00:03:36;100761.0;;;21.88;35.81
48530;BME280;34927;37.302;-121.982;2022-12-13T00:04:42;100763.0;;;22.02;35.51
48530;BME280;34927;37.302;-121.982;2022-12-13T00:05:46;100762.0;;;21.88;35.96
48530;BME280;34927;37.302;-121.982;2022-12-13T00:06:52;100761.0;;;21.97;35.81
48530;BME280;34927;37.302;-121.982;2022-12-13T00:07:57;100760.0;;;22.03;35.57
48530;BME280;34927;37.302;-121.982;2022-12-13T00:09:03;100758.0;;;22.04;35.49
48530;BME280;34927;37.302;-121.982;2022-12-13T00:10:07;100758.0;;;22.06;35.50
48530;BME280;34927;37.302;-121.982;2022-12-13T00:11:13;100757.0;;;22.17;35.33
48530;BME280;34927;37.302;-121.982;2022-12-13T00:12:16;100756.0;;;22.10;35.57
48530;BME280;34927;37.302;-121.982;2022-12-13T00:13:21;100757.0;;;21.94;35.81
48530;BME280;34927;37.302;-121.982;2022-12-13T00:14:27;100756.0;;;21.96;35.72
48530;BME280;34927;37.302;-121.982;2022-12-13T00:15:31;100755.0;;;21.90;35.81
48530;BME280;34927;37.302;-121.982;2022-12-13T00:16:36;100756.0;;;21.89;35.86
48530;BME280;34927;37.302;-121.982;2022-12-13T00:17:42;100755.0;;;21.89;35.79
48530;BME280;34927;37.302;-121.982;2022-12-13T00:18:48;100755.0;;;21.73;36.22
48530;BME280;34927;37.302;-121.982;2022-12-13T00:19:52;100754.0;;;21.55;36.33
48530;BME280;34927;37.302;-121.982;2022-12-13T00:20:56;100752.0;;;21.49;36.14
48530;BME280;34927;37.302;-121.982;2022-12-13T00:22:02;100751.0;;;21.40;36.24
48530;BME280;34927;37.302;-121.982;2022-12-13T00:23:06;100752.0;;;21.38;36.24
48530;BME280;34927;37.302;-121.982;2022-12-13T00:24:12;100752.0;;;21.50;36.03
48530;BME280;34927;37.302;-121.982;2022-12-13T00:25:17;100753.0;;;21.46;36.00
48530;BME280;34927;37.302;-121.982;2022-12-13T00:26:24;100754.0;;;21.49;35.98
48530;BME280;34927;37.302;-121.982;2022-12-13T00:27:27;100756.0;;;21.59;35.82
48530;BME280;34927;37.302;-121.982;2022-12-13T00:28:32;100758.0;;;21.58;36.24
48530;BME280;34927;37.302;-121.982;2022-12-13T00:29:37;100757.0;;;21.59;36.39
48530;BME280;34927;37.302;-121.982;2022-12-13T00:30:42;100760.0;;;21.64;36.54
48530;BME280;34927;37.302;-121.982;2022-12-13T00:31:46;100760.0;;;21.61;36.75
48530;BME280;34927;37.302;-121.982;2022-12-13T00:32:51;100758.0;;;21.47;36.91
48530;BME280;34927;37.302;-121.982;2022-12-13T00:33:57;100756.0;;;21.35;36.90
48530;BME280;34927;37.302;-121.982;2022-12-13T00:35:02;100760.0;;;21.48;36.77
48530;BME280;34927;37.302;-121.982;2022-12-13T00:36:07;100760.0;;;21.53;36.54
48530;BME280;34927;37.302;-121.982;2022-12-13T00:37:12;100759.0;;;21.59;36.46
48530;BME280;34927;37.302;-121.982;2022-12-13T00:38:17;100761.0;;;21.53;36.41
48530;BME280;34927;37.302;-121.982;2022-12-13T00:39:22;100762.0;;;21.40;37.12
48530;BME280;34927;37.302;-121.982;2022-12-13T00:40:28;100759.0;;;21.31;37.28
48530;BME280;34927;37.302;-121.982;2022-12-13T00:41:33;100758.0;;;21.25;37.29
48530;BME280;34927;37.302;-121.982;2022-12-13T00:42:36;100758.0;;;21.26;37.27
48530;BME280;34927;37.302;-121.982;2022-12-13T00:43:42;100759.0;;;21.32;37.07
48530;BME280;34927;37.302;-121.982;2022-12-13T00:44:46;100761.0;;;21.24;37.35
48530;BME280;34927;37.302;-121.982;2022-12-13T00:45:52;100761.0;;;21.27;37.38
48530;BME280;34927;37.302;-121.982;2022-12-13T00:46:57;100762.0;;;21.34;37.12
48530;BME280;34927;37.302;-121.982;2022-12-13T00:48:01;100761.0;;;21.25;37.34
48530;BME280;34927;37.302;-121.982;2022-12-13T00:49:06;100764.0;;;21.10;37.54
48530;BME280;34927;37.302;-121.982;2022-12-13T00:50:12;100763.0;;;21.23;37.53
48530;BME280;34927;37.302;-121.982;2022-12-13T00:51:16;100768.0;;;21.12;37.73
48530;BME280;34927;37.302;-121.982;2022-12-13T00:52:22;100770.0;;;21.12;37.55
48530;BME280;34927;37.302;-121.982;2022-12-13T00:53:27;100769.0;;;21.27;37.35
48530;BME280;34927;37.302;-121.982;2022-12-13T00:54:32;100773.0;;;21.14;37.54
48530;BME280;34927;37.302;-121.982;2022-12-13T00:55:40;100774.0;;;21.14;37.51
48530;BME280;34927;37.302;-121.982;2022-12-13T00:56:46;100776.0;;;21.07;37.65
48530;BME280;34927;37.302;-121.982;2022-12-13T00:57:52;100775.0;;;21.02;37.57
48530;BME280;34927;37.302;-121.982;2022-12-13T00:58:56;100776.0;;;21.23;37.34
48530;BME280;34927;37.302;-121.982;2022-12-13T01:00:02;100778.0;;;21.31;37.20
48530;BME280;34927;37.302;-121.982;2022-12-13T01:01:08;100781.0;;;21.10;37.54
48530;BME280;34927;37.302;-121.982;2022-12-13T01:02:12;100782.0;;;21.09;37.55
48530;BME280;34927;37.302;-121.982;2022-12-13T01:03:16;100785.0;;;21.22;37.13
48530;BME280;34927;37.302;-121.982;2022-12-13T01:04:22;100784.0;;;21.27;36.91
48530;BME280;34927;37.302;-121.982;2022-12-13T01:05:26;100786.0;;;21.15;37.20
48530;BME280;34927;37.302;-121.982;2022-12-13T01:06:35;100791.0;;;21.07;37.39
48530;BME280;34927;37.302;-121.982;2022-12-13T01:07:41;100795.0;;;21.19;37.25
48530;BME280;34927;37.302;-121.982;2022-12-13T01:08:47;100797.0;;;21.05;37.41
48530;BME280;34927;37.302;-121.982;2022-12-13T01:09:51;100799.0;;;21.05;37.27
48530;BME280;34927;37.302;-121.982;2022-12-13T01:10:57;100800.0;;;21.08;37.28
48530;BME280;34927;37.302;-121.982;2022-12-13T01:12:03;100803.0;;;21.18;37.13
48530;BME280;34927;37.302;-121.982;2022-12-13T01:13:07;100806.0;;;21.09;37.13
48530;BME280;34927;37.302;-121.982;2022-12-13T01:14:11;100808.0;;;21.02;37.31
48530;BME280;34927;37.302;-121.982;2022-12-13T01:15:16;100808.0;;;21.06;37.35
48530;BME280;34927;37.302;-121.982;2022-12-13T01:16:22;100808.0;;;20.79;37.85
48530;BME280;34927;37.302;-121.982;2022-12-13T01:17:26;100807.0;;;20.81;37.72
48530;BME280;34927;37.302;-121.982;2022-12-13T01:18:32;100809.0;;;20.83;37.44
48530;BME280;34927;37.302;-121.982;2022-12-13T01:19:36;100810.0;;;20.80;37.40
48530;BME280;34927;37.302;-121.982;2022-12-13T01:20:42;100811.0;;;20.95;37.09
48530;BME280;34927;37.302;-121.982;2022-12-13T01:21:47;100809.0;;;21.06;36.83
48530;BME280;34927;37.302;-121.982;2022-12-13T01:22:51;100809.0;;;20.99;36.99
48530;BME280;34927;37.302;-121.982;2022-12-13T01:24:00;100808.0;;;21.01;36.82
48530;BME280;34927;37.302;-121.982;2022-12-13T01:25:07;100812.0;;;21.06;36.77
48530;BME280;34927;37.302;-121.982;2022-12-13T01:26:13;100811.0;;;21.11;36.53
48530;BME280;34927;37.302;-121.982;2022-12-13T01:27:16;100815.0;;;21.02;36.55
48530;BME280;34927;37.302;-121.982;2022-12-13T01:28:22;100814.0;;;20.80;37.22
48530;BME280;34927;37.302;-121.982;2022-12-13T01:29:27;100815.0;;;20.76;37.20
48530;BME280;34927;37.302;-121.982;2022-12-13T01:30:31;100813.0;;;20.77;37.20
48530;BME280;34927;37.302;-121.982;2022-12-13T01:31:37;100815.0;;;20.92;36.98
48530;BME280;34927;37.302;-121.982;2022-12-13T01:32:42;100815.0;;;20.91;36.84
48530;BME280;34927;37.302;-121.982;2022-12-13T01:33:47;100817.0;;;20.88;36.73
48530;BME280;34927;37.302;-121.982;2022-12-13T01:34:51;100823.0;;;21.05;36.60
48530;BME280;34927;37.302;-121.982;2022-12-13T01:36:00;100825.0;;;21.29;36.26
48530;BME280;34927;37.302;-121.982;2022-12-13T01:37:06;100826.0;;;21.62;35.67
48530;BME280;34927;37.302;-121.982;2022-12-13T01:38:12;100827.0;;;21.94;35.15
48530;BME280;34927;37.302;-121.982;2022-12-13T01:39:18;100825.0;;;22.28;34.55
48530;BME280;34927;37.302;-121.982;2022-12-13T01:40:21;100823.0;;;22.53;34.07
48530;BME280;34927;37.302;-121.982;2022-12-13T01:41:27;100824.0;;;22.79;33.55
48530;BME280;34927;37.302;-121.982;2022-12-13T01:42:31;100827.0;;;23.00;33.16
48530;BME280;34927;37.302;-121.982;2022-12-13T01:45:02;100830.0;;;23.44;32.41
48530;BME280;34927;37.302;-121.982;2022-12-13T01:46:07;100831.0;;;23.69;32.00
48530;BME280;34927;37.302;-121.982;2022-12-13T01:47:12;100826.0;;;23.83;31.76
48530;BME280;34927;37.302;-121.982;2022-12-13T01:48:19;100825.0;;;23.91;31.58
48530;BME280;34927;37.302;-121.982;2022-12-13T01:49:27;100823.0;;;24.12;31.32
48530;BME280;34927;37.302;-121.982;2022-12-13T01:50:34;100824.0;;;24.23;31.14
48530;BME280;34927;37.302;-121.982;2022-12-13T01:51:44;100828.0;;;24.34;30.95
48530;BME280;34927;37.302;-121.982;2022-12-13T01:52:53;100826.0;;;24.47;30.78
48530;BME280;34927;37.302;-121.982;2022-12-13T01:53:59;100826.0;;;24.55;30.70
48530;BME280;34927;37.302;-121.982;2022-12-13T01:55:08;100828.0;;;24.69;30.46
48530;BME280;34927;37.302;-121.982;2022-12-13T01:56:16;100828.0;;;24.75;30.34
48530;BME280;34927;37.302;-121.982;2022-12-13T01:57:22;100825.0;;;24.82;30.15
48530;BME280;34927;37.302;-121.982;2022-12-13T01:58:26;100821.0;;;24.96;30.03
48530;BME280;34927;37.302;-121.982;2022-12-13T01:59:33;100825.0;;;25.08;29.90
48530;BME280;34927;37.302;-121.982;2022-12-13T02:00:37;100828.0;;;25.14;29.79
48530;BME280;34927;37.302;-121.982;2022-12-13T02:01:42;100826.0;;;25.09;29.70
48530;BME280;34927;37.302;-121.982;2022-12-13T02:02:48;100824.0;;;24.92;29.90
48530;BME280;34927;37.302;-121.982;2022-12-13T02:03:52;100825.0;;;24.69;30.24
48530;BME280;34927;37.302;-121.982;2022-12-13T02:05:02;100822.0;;;24.50;30.64
48530;BME280;34927;37.302;-121.982;2022-12-13T02:06:10;100819.0;;;24.44;30.66
48530;BME280;34927;37.302;-121.982;2022-12-13T02:07:18;100818.0;;;24.12;30.95
48530;BME280;34927;37.302;-121.982;2022-12-13T02:08:27;100820.0;;;23.83;31.28
48530;BME280;34927;37.302;-121.982;2022-12-13T02:09:32;100821.0;;;23.84;31.54
48530;BME280;34927;37.302;-121.982;2022-12-13T02:10:38;100824.0;;;23.97;31.48
48530;BME280;34927;37.302;-121.982;2022-12-13T02:11:42;100824.0;;;24.09;31.32
48530;BME280;34927;37.302;-121.982;2022-12-13T02:12:46;100826.0;;;24.31;30.98
48530;BME280;34927;37.302;-121.982;2022-12-13T02:13:51;100826.0;;;24.48;30.65
48530;BME280;34927;37.302;-121.982;2022-12-13T02:14:57;100828.0;;;24.61;30.55
48530;BME280;34927;37.302;-121.982;2022-12-13T02:16:05;100829.0;;;24.78;30.38
48530;BME280;34927;37.302;-121.982;2022-12-13T02:17:16;100830.0;;;24.99;30.11
48530;BME280;34927;37.302;-121.982;2022-12-13T02:18:32;100832.0;;;25.11;29.91
48530;BME280;34927;37.302;-121.982;2022-12-13T02:19:58;100834.0;;;25.30;29.69
48530;BME280;34927;37.302;-121.982;2022-12-13T02:21:20;100832.0;;;25.47;29.46
48530;BME280;34927;37.302;-121.982;2022-12-13T02:25:09;100837.0;;;24.90;30.03
48530;BME280;34927;37.302;-121.982;2022-12-13T02:26:38;100835.0;;;24.77;30.33
48530;BME280;34927;37.302;-121.982;2022-12-13T02:28:04;100833.0;;;24.48;30.67
48530;BME280;34927;37.302;-121.982;2022-12-13T02:30:39;100834.0;;;24.04;31.51
48530;BME280;34927;37.302;-121.982;2022-12-13T02:31:51;100837.0;;;24.23;31.39
48530;BME280;34927;37.302;-121.982;2022-12-13T02:33:21;100835.0;;;24.43;31.11
48530;BME280;34927;37.302;-121.982;2022-12-13T02:34:29;100839.0;;;24.69;30.73
48530;BME280;34927;37.302;-121.982;2022-12-13T02:35:40;100847.0;;;24.87;30.39
48530;BME280;34927;37.302;-121.982;2022-12-13T02:36:56;100850.0;;;24.95;30.11
48530;BME280;34927;37.302;-121.982;2022-12-13T02:38:12;100847.0;;;24.75;30.21
48530;BME280;34927;37.302;-121.982;2022-12-13T02:39:19;100840.0;;;24.56;30.39
48530;BME280;34927;37.302;-121.982;2022-12-13T02:40:30;100842.0;;;24.42;30.60
48530;BME280;34927;37.302;-121.982;2022-12-13T02:41:39;100847.0;;;24.09;31.12
48530;BME280;34927;37.302;-121.982;2022-12-13T02:42:53;100850.0;;;23.77;31.46
48530;BME280;34927;37.302;-121.982;2022-12-13T02:44:06;100852.0;;;23.52;31.84
48530;BME280;34927;37.302;-121.982;2022-12-13T02:45:15;100850.0;;;23.51;31.87
48530;BME280;34927;37.302;-121.982;2022-12-13T02:46:25;100844.0;;;23.45;31.87
48530;BME280;34927;37.302;-121.982;2022-12-13T02:47:33;100840.0;;;23.39;31.99
48530;BME280;34927;37.302;-121.982;2022-12-13T02:48:39;100834.0;;;23.35;31.66
48530;BME280;34927;37.302;-121.982;2022-12-13T02:49:50;100836.0;;;23.52;31.63
48530;BME280;34927;37.302;-121.982;2022-12-13T02:50:59;100845.0;;;23.74;31.33
48530;BME280;34927;37.302;-121.982;2022-12-13T02:52:08;100848.0;;;23.95;31.05
48530;BME280;34927;37.302;-121.982;2022-12-13T02:53:19;100852.0;;;24.22;30.63
48530;BME280;34927;37.302;-121.982;2022-12-13T02:54:23;100858.0;;;24.44;30.30
48530;BME280;34927;37.302;-121.982;2022-12-13T02:55:27;100859.0;;;24.59;30.04
48530;BME280;34927;37.302;-121.982;2022-12-13T02:56:31;100861.0;;;24.73;29.73
48530;BME280;34927;37.302;-121.982;2022-12-13T02:57:39;100864.0;;;24.88;29.48
48530;BME280;34927;37.302;-121.982;2022-12-13T02:58:45;100865.0;;;24.99;29.25
48530;BME280;34927;37.302;-121.982;2022-12-13T02:59:51;100860.0;;;25.15;29.00
48530;BME280;34927;37.302;-121.982;2022-12-13T03:01:09;100860.0;;;25.18;28.83
48530;BME280;34927;37.302;-121.982;2022-12-13T03:02:20;100861.0;;;24.99;29.03
48530;BME280;34927;37.302;-121.982;2022-12-13T03:03:35;100858.0;;;24.79;29.07
48530;BME280;34927;37.302;-121.982;2022-12-13T03:04:55;100857.0;;;24.56;29.33
48530;BME280;34927;37.302;-121.982;2022-12-13T03:06:12;100859.0;;;24.50;29.46
48530;BME280;34927;37.302;-121.982;2022-12-13T03:07:27;100858.0;;;24.12;29.87
48530;BME280;34927;37.302;-121.982;2022-12-13T03:08:43;100850.0;;;23.75;30.42
48530;BME280;34927;37.302;-121.982;2022-12-13T03:09:57;100844.0;;;23.70;31.05
48530;BME280;34927;37.302;-121.982;2022-12-13T03:11:05;100849.0;;;23.85;31.01
48530;BME280;34927;37.302;-121.982;2022-12-13T03:12:18;100854.0;;;23.99;30.72
48530;BME280;34927;37.302;-121.982;2022-12-13T03:13:32;100864.0;;;24.19;30.57
48530;BME280;34927;37.302;-121.982;2022-12-13T03:14:40;100865.0;;;24.39;30.27
48530;BME280;34927;37.302;-121.982;2022-12-13T03:15:52;100871.0;;;24.65;30.07
48530;BME280;34927;37.302;-121.982;2022-12-13T03:16:58;100872.0;;;24.89;29.77
48530;BME280;34927;37.302;-121.982;2022-12-13T03:18:09;100874.0;;;24.96;29.64
48530;BME280;34927;37.302;-121.982;2022-12-13T03:19:17;100875.0;;;24.78;29.78
48530;BME280;34927;37.302;-121.982;2022-12-13T03:20:24;100875.0;;;24.63;29.92
48530;BME280;34927;37.302;-121.982;2022-12-13T03:21:37;100877.0;;;24.52;30.02
48530;BME280;34927;37.302;-121.982;2022-12-13T03:22:42;100876.0;;;24.43;30.23
48530;BME280;34927;37.302;-121.982;2022-12-13T03:23:47;100877.0;;;23.96;30.69
48530;BME280;34927;37.302;-121.982;2022-12-13T03:24:52;100873.0;;;23.82;30.87
48530;BME280;34927;37.302;-121.982;2022-12-13T03:26:00;100873.0;;;23.65;31.00
48530;BME280;34927;37.302;-121.982;2022-12-13T03:27:06;100872.0;;;23.40;31.52
48530;BME280;34927;37.302;-121.982;2022-12-13T03:28:11;100869.0;;;23.39;31.51
48530;BME280;34927;37.302;-121.982;2022-12-13T03:29:17;100866.0;;;23.57;31.48
48530;BME280;34927;37.302;-121.982;2022-12-13T03:30:22;100866.0;;;23.74;31.26
48530;BME280;34927;37.302;-121.982;2022-12-13T03:31:27;100869.0;;;23.99;30.93
48530;BME280;34927;37.302;-121.982;2022-12-13T03:32:32;100872.0;;;24.20;30.62
48530;BME280;34927;37.302;-121.982;2022-12-13T03:33:36;100874.0;;;24.40;30.26
48530;BME280;34927;37.302;-121.982;2022-12-13T03:34:42;100874.0;;;24.60;29.95
48530;BME280;34927;37.302;-121.982;2022-12-13T03:35:47;100872.0;;;24.77;29.69
48530;BME280;34927;37.302;-121.982;2022-12-13T03:36:51;100875.0;;;24.73;29.60
48530;BME280;34927;37.302;-121.982;2022-12-13T03:37:57;100881.0;;;24.47;29.94
48530;BME280;34927;37.302;-121.982;2022-12-13T03:39:02;100885.0;;;24.35;29.92
48530;BME280;34927;37.302;-121.982;2022-12-13T03:40:07;100885.0;;;24.26;30.13
48530;BME280;34927;37.302;-121.982;2022-12-13T03:41:14;100886.0;;;23.95;30.50
48530;BME280;34927;37.302;-121.982;2022-12-13T03:42:21;100884.0;;;23.78;30.62
48530;BME280;34927;37.302;-121.982;2022-12-13T03:43:27;100888.0;;;23.59;31.05
48530;BME280;34927;37.302;-121.982;2022-12-13T03:44:31;100887.0;;;23.41;31.42
48530;BME280;34927;37.302;-121.982;2022-12-13T03:45:37;100888.0;;;23.32;31.51
48530;BME280;34927;37.302;-121.982;2022-12-13T03:46:41;100890.0;;;23.22;31.64
48530;BME280;34927;37.302;-121.982;2022-12-13T03:47:47;100890.0;;;23.27;31.76
48530;BME280;34927;37.302;-121.982;2022-12-13T03:48:52;100890.0;;;23.51;31.69
48530;BME280;34927;37.302;-121.982;2022-12-13T03:49:56;100889.0;;;23.72;31.38
48530;BME280;34927;37.302;-121.982;2022-12-13T03:51:02;100889.0;;;23.95;31.07
48530;BME280;34927;37.302;-121.982;2022-12-13T03:52:06;100893.0;;;24.17;30.73
48530;BME280;34927;37.302;-121.982;2022-12-13T03:53:11;100896.0;;;24.36;30.43
48530;BME280;34927;37.302;-121.982;2022-12-13T03:54:17;100894.0;;;24.43;30.25
48530;BME280;34927;37.302;-121.982;2022-12-13T03:55:21;100896.0;;;24.31;30.34
48530;BME280;34927;37.302;-121.982;2022-12-13T03:56:26;100895.0;;;24.21;30.54
48530;BME280;34927;37.302;-121.982;2022-12-13T03:57:32;100891.0;;;24.00;30.89
48530;BME280;34927;37.302;-121.982;2022-12-13T03:58:37;100890.0;;;23.79;31.15
48530;BME280;34927;37.302;-121.982;2022-12-13T03:59:41;100892.0;;;23.61;31.36
48530;BME280;34927;37.302;-121.982;2022-12-13T04:00:46;100895.0;;;23.42;31.74
48530;BME280;34927;37.302;-121.982;2022-12-13T04:01:52;100900.0;;;23.36;31.78
48530;BME280;34927;37.302;-121.982;2022-12-13T04:02:56;100903.0;;;23.23;31.93
48530;BME280;34927;37.302;-121.982;2022-12-13T04:04:02;100900.0;;;23.05;32.21
48530;BME280;34927;37.302;-121.982;2022-12-13T04:05:07;100891.0;;;23.02;32.28
48530;BME280;34927;37.302;-121.982;2022-12-13T04:06:12;100876.0;;;23.11;32.13
48530;BME280;34927;37.302;-121.982;2022-12-13T04:07:16;100870.0;;;23.36;31.91
48530;BME280;34927;37.302;-121.982;2022-12-13T04:08:21;100868.0;;;23.56;31.64
48530;BME280;34927;37.302;-121.982;2022-12-13T04:09:27;100868.0;;;23.82;31.25
48530;BME280;34927;37.302;-121.982;2022-12-13T04:10:31;100874.0;;;24.09;30.84
48530;BME280;34927;37.302;-121.982;2022-12-13T04:11:37;100874.0;;;24.30;30.52
48530;BME280;34927;37.302;-121.982;2022-12-13T04:12:42;100872.0;;;24.46;30.22
48530;BME280;34927;37.302;-121.982;2022-12-13T04:13:46;100873.0;;;24.39;30.20
48530;BME280;34927;37.302;-121.982;2022-12-13T04:14:52;100878.0;;;24.25;30.33
48530;BME280;34927;37.302;-121.982;2022-12-13T04:15:56;100879.0;;;24.02;30.83
48530;BME280;34927;37.302;-121.982;2022-12-13T04:17:01;100881.0;;;23.87;31.04
48530;BME280;34927;37.302;-121.982;2022-12-13T04:18:06;100885.0;;;23.63;31.36
48530;BME280;34927;37.302;-121.982;2022-12-13T04:19:12;100887.0;;;23.50;31.48
48530;BME280;34927;37.302;-121.982;2022-12-13T04:20:16;100888.0;;;23.39;31.72
48530;BME280;34927;37.302;-121.982;2022-12-13T04:21:21;100887.0;;;23.23;31.89
48530;BME280;34927;37.302;-121.982;2022-12-13T04:22:27;100886.0;;;23.08;32.17
48530;BME280;34927;37.302;-121.982;2022-12-13T04:23:32;100889.0;;;23.00;32.25
48530;BME280;34927;37.302;-121.982;2022-12-13T04:24:37;100886.0;;;23.05;32.13
48530;BME280;34927;37.302;-121.982;2022-12-13T04:25:42;100886.0;;;23.28;31.95
48530;BME280;34927;37.302;-121.982;2022-12-13T04:26:47;100890.0;;;23.48;31.68
48530;BME280;34927;37.302;-121.982;2022-12-13T04:27:52;100894.0;;;23.73;31.31
48530;BME280;34927;37.302;-121.982;2022-12-13T04:28:57;100895.0;;;23.98;30.94
48530;BME280;34927;37.302;-121.982;2022-12-13T04:30:02;100901.0;;;24.23;30.60
48530;BME280;34927;37.302;-121.982;2022-12-13T04:31:06;100902.0;;;24.40;30.24
48530;BME280;34927;37.302;-121.982;2022-12-13T04:32:11;100904.0;;;24.35;30.21
48530;BME280;34927;37.302;-121.982;2022-12-13T04:33:16;100908.0;;;24.16;30.39
48530;BME280;34927;37.302;-121.982;2022-12-13T04:34:22;100911.0;;;24.11;30.60
48530;BME280;34927;37.302;-121.982;2022-12-13T04:35:27;100918.0;;;23.85;31.00
48530;BME280;34927;37.302;-121.982;2022-12-13T04:36:31;100918.0;;;23.64;31.22
48530;BME280;34927;37.302;-121.982;2022-12-13T04:37:37;100917.0;;;23.47;31.48
48530;BME280;34927;37.302;-121.982;2022-12-13T04:38:41;100918.0;;;23.32;31.66
48530;BME280;34927;37.302;-121.982;2022-12-13T04:39:47;100924.0;;;23.15;31.95
48530;BME280;34927;37.302;-121.982;2022-12-13T04:40:52;100927.0;;;23.04;32.07
48530;BME280;34927;37.302;-121.982;2022-12-13T04:41:57;100926.0;;;23.02;32.23
48530;BME280;34927;37.302;-121.982;2022-12-13T04:43:01;100927.0;;;22.91;32.19
48530;BME280;34927;37.302;-121.982;2022-12-13T04:44:08;100927.0;;;23.13;32.01
48530;BME280;34927;37.302;-121.982;2022-12-13T04:45:15;100925.0;;;23.36;31.73
48530;BME280;34927;37.302;-121.982;2022-12-13T04:46:22;100924.0;;;23.64;31.34
48530;BME280;34927;37.302;-121.982;2022-12-13T04:47:27;100928.0;;;23.94;30.93
48530;BME280;34927;37.302;-121.982;2022-12-13T04:48:32;100927.0;;;24.14;30.57
48530;BME280;34927;37.302;-121.982;2022-12-13T04:49:36;100927.0;;;24.36;30.25
48530;BME280;34927;37.302;-121.982;2022-12-13T04:50:42;100928.0;;;24.44;30.02
48530;BME280;34927;37.302;-121.982;2022-12-13T04:51:46;100929.0;;;24.28;30.12
48530;BME280;34927;37.302;-121.982;2022-12-13T04:52:51;100929.0;;;24.18;30.33
48530;BME280;34927;37.302;-121.982;2022-12-13T04:53:57;100931.0;;;24.00;30.64
48530;BME280;34927;37.302;-121.982;2022-12-13T04:55:02;100931.0;;;23.74;30.94
48530;BME280;34927;37.302;-121.982;2022-12-13T04:56:07;100932.0;;;23.53;31.30
48530;BME280;34927;37.302;-121.982;2022-12-13T04:57:12;100932.0;;;23.36;31.56
48530;BME280;34927;37.302;-121.982;2022-12-13T04:58:16;100934.0;;;23.26;31.67
48530;BME280;34927;37.302;-121.982;2022-12-13T04:59:21;100937.0;;;23.06;32.04
48530;BME280;34927;37.302;-121.982;2022-12-13T05:00:27;100939.0;;;22.94;32.22
48530;BME280;34927;37.302;-121.982;2022-12-13T05:01:31;100938.0;;;22.87;32.13
48530;BME280;34927;37.302;-121.982;2022-12-13T05:02:36;100939.0;;;23.10;31.95
48530;BME280;34927;37.302;-121.982;2022-12-13T05:03:42;100943.0;;;23.29;31.69
48530;BME280;34927;37.302;-121.982;2022-12-13T05:04:46;100943.0;;;23.56;31.34
48530;BME280;34927;37.302;-121.982;2022-12-13T05:05:52;100947.0;;;23.84;30.97
48530;BME280;34927;37.302;-121.982;2022-12-13T05:06:57;100951.0;;;24.05;30.60
48530;BME280;34927;37.302;-121.982;2022-12-13T05:08:01;100949.0;;;24.29;30.22
48530;BME280;34927;37.302;-121.982;2022-12-13T05:09:06;100950.0;;;24.45;29.94
48530;BME280;34927;37.302;-121.982;2022-12-13T05:10:12;100953.0;;;24.42;29.91
48530;BME280;34927;37.302;-121.982;2022-12-13T05:11:16;100955.0;;;24.23;30.01
48530;BME280;34927;37.302;-121.982;2022-12-13T05:12:21;100956.0;;;24.15;30.38
48530;BME280;34927;37.302;-121.982;2022-12-13T05:13:27;100954.0;;;23.88;30.71
48530;BME280;34927;37.302;-121.982;2022-12-13T05:14:32;100951.0;;;23.66;30.95
48530;BME280;34927;37.302;-121.982;2022-12-13T05:15:36;100954.0;;;23.52;31.23
48530;BME280;34927;37.302;-121.982;2022-12-13T05:16:42;100956.0;;;23.31;31.47
48530;BME280;34927;37.302;-121.982;2022-12-13T05:17:46;100956.0;;;23.20;31.66
48530;BME280;34927;37.302;-121.982;2022-12-13T05:18:51;100957.0;;;23.05;31.95
48530;BME280;34927;37.302;-121.982;2022-12-13T05:19:56;100955.0;;;22.94;32.07
48530;BME280;34927;37.302;-121.982;2022-12-13T05:21:03;100954.0;;;23.10;31.80
48530;BME280;34927;37.302;-121.982;2022-12-13T05:22:09;100954.0;;;23.33;31.59
48530;BME280;34927;37.302;-121.982;2022-12-13T05:23:12;100952.0;;;23.56;31.34
48530;BME280;34927;37.302;-121.982;2022-12-13T05:24:16;100953.0;;;23.78;31.04
48530;BME280;34927;37.302;-121.982;2022-12-13T05:25:22;100956.0;;;24.00;30.69
48530;BME280;34927;37.302;-121.982;2022-12-13T05:26:27;100949.0;;;24.19;30.39
48530;BME280;34927;37.302;-121.982;2022-12-13T05:27:31;100951.0;;;24.43;30.00
48530;BME280;34927;37.302;-121.982;2022-12-13T05:28:37;100952.0;;;24.58;29.72
48530;BME280;34927;37.302;-121.982;2022-12-13T05:29:41;100952.0;;;24.50;29.78
48530;BME280;34927;37.302;-121.982;2022-12-13T05:30:47;100949.0;;;24.32;29.95
48530;BME280;34927;37.302;-121.982;2022-12-13T05:31:52;100949.0;;;24.21;30.31
48530;BME280;34927;37.302;-121.982;2022-12-13T05:32:57;100952.0;;;23.85;30.99
48530;BME280;34927;37.302;-121.982;2022-12-13T05:34:01;100954.0;;;23.64;31.23
48530;BME280;34927;37.302;-121.982;2022-12-13T05:35:07;100951.0;;;23.48;31.44
48530;BME280;34927;37.302;-121.982;2022-12-13T05:36:12;100955.0;;;23.31;31.88
48530;BME280;34927;37.302;-121.982;2022-12-13T05:37:18;100953.0;;;23.17;32.00
48530;BME280;34927;37.302;-121.982;2022-12-13T05:38:22;100952.0;;;23.03;32.29
48530;BME280;34927;37.302;-121.982;2022-12-13T05:39:27;100952.0;;;22.88;32.30
48530;BME280;34927;37.302;-121.982;2022-12-13T05:40:32;100953.0;;;23.10;31.80
48530;BME280;34927;37.302;-121.982;2022-12-13T05:41:37;100956.0;;;23.36;31.51
48530;BME280;34927;37.302;-121.982;2022-12-13T05:42:41;100954.0;;;23.62;31.21
48530;BME280;34927;37.302;-121.982;2022-12-13T05:43:47;100956.0;;;23.88;30.82